createdAt,value
2022-10-28T00:01:22.660Z,14.90
2022-10-28T00:03:56.544Z,15.00
2022-10-28T00:06:29.990Z,15.10
2022-10-28T00:08:57.183Z,15.10
2022-10-28T00:11:33.196Z,15.10
2022-10-28T00:14:02.777Z,15.10
2022-10-28T00:16:32.976Z,15.20
2022-10-28T00:19:01.476Z,15.20
2022-10-28T00:21:34.299Z,15.00
2022-10-28T00:24:01.414Z,15.00
2022-10-28T00:26:31.278Z,14.90
2022-10-28T00:29:07.232Z,14.70
2022-10-28T00:31:35.602Z,14.60
2022-10-28T00:34:05.389Z,14.60
2022-10-28T00:36:36.052Z,14.60
2022-10-28T00:39:08.121Z,14.60
2022-10-28T00:41:41.199Z,14.50
2022-10-28T00:44:45.495Z,14.60
2022-10-28T00:47:21.357Z,14.50
2022-10-28T00:49:50.988Z,14.50
2022-10-28T00:52:22.466Z,14.40
2022-10-28T00:54:51.771Z,14.30
2022-10-28T00:57:23.204Z,14.20
2022-10-28T00:59:52.511Z,14.20
2022-10-28T01:02:20.241Z,14.10
2022-10-28T01:04:47.872Z,14.10
2022-10-28T01:07:17.096Z,14.00
2022-10-28T01:09:44.672Z,14.00
2022-10-28T01:12:26.540Z,14.00
2022-10-28T01:15:08.855Z,14.00
2022-10-28T01:17:52.921Z,14.10
2022-10-28T01:20:53.635Z,14.10
2022-10-28T01:23:36.119Z,14.20
2022-10-28T01:26:38.043Z,14.30
2022-10-28T01:29:19.243Z,14.40
2022-10-28T01:32:07.411Z,14.50
2022-10-28T01:34:51.093Z,14.50
2022-10-28T01:37:58.851Z,14.50
2022-10-28T01:40:38.120Z,14.60
2022-10-28T01:43:13.460Z,14.60
2022-10-28T01:45:59.423Z,14.60
2022-10-28T01:51:11.136Z,14.20
2022-10-28T01:53:41.915Z,14.10
2022-10-28T01:56:14.343Z,14.00
2022-10-28T01:58:43.015Z,14.00
2022-10-28T02:01:11.059Z,13.90
2022-10-28T02:03:38.074Z,13.90
2022-10-28T02:06:13.016Z,13.90
2022-10-28T02:08:42.903Z,13.80
2022-10-28T02:11:21.632Z,13.80
2022-10-28T02:13:56.371Z,13.80
2022-10-28T02:16:50.187Z,13.60
2022-10-28T02:19:27.133Z,13.60
2022-10-28T02:21:59.727Z,13.60
2022-10-28T02:24:36.731Z,13.50
2022-10-28T02:27:07.782Z,13.30
2022-10-28T02:29:45.714Z,13.40
2022-10-28T02:32:18.491Z,13.40
2022-10-28T02:34:48.671Z,13.40
2022-10-28T02:37:31.395Z,13.40
2022-10-28T02:40:02.250Z,13.50
2022-10-28T02:42:33.513Z,13.50
2022-10-28T02:45:11.900Z,13.40
2022-10-28T02:47:43.946Z,13.50
2022-10-28T02:50:17.422Z,13.60
2022-10-28T02:52:48.204Z,13.60
2022-10-28T02:55:15.439Z,13.70
2022-10-28T02:57:48.149Z,13.70
2022-10-28T03:00:23.142Z,13.70
2022-10-28T03:02:49.882Z,13.60
2022-10-28T03:05:17.814Z,13.60
2022-10-28T03:07:44.567Z,13.70
2022-10-28T03:10:11.315Z,13.60
2022-10-28T03:12:38.119Z,13.50
2022-10-28T03:15:05.902Z,13.40
2022-10-28T03:17:33.111Z,13.40
2022-10-28T03:19:59.971Z,13.40
2022-10-28T03:22:26.731Z,13.40
2022-10-28T03:24:53.467Z,13.40
2022-10-28T03:27:20.251Z,13.30
2022-10-28T03:29:46.978Z,13.20
2022-10-28T03:32:14.119Z,13.10
2022-10-28T03:34:41.372Z,13.10
2022-10-28T03:37:08.180Z,13.10
2022-10-28T03:39:34.951Z,13.20
2022-10-28T03:42:02.098Z,13.20
2022-10-28T03:44:29.266Z,13.10
2022-10-28T03:46:56.037Z,13.10
2022-10-28T03:49:23.288Z,13.00
2022-10-28T03:51:49.992Z,13.00
2022-10-28T03:54:16.835Z,13.00
2022-10-28T03:56:43.599Z,12.90
2022-10-28T03:59:11.757Z,12.80
2022-10-28T04:01:40.135Z,12.80
2022-10-28T04:04:06.987Z,12.90
2022-10-28T04:06:34.123Z,12.80
2022-10-28T04:09:00.949Z,12.80
2022-10-28T04:11:27.726Z,12.70
2022-10-28T04:13:54.451Z,12.80
2022-10-28T04:16:23.624Z,12.90
2022-10-28T04:18:50.647Z,12.90
2022-10-28T04:21:18.363Z,12.90
2022-10-28T04:23:45.123Z,13.10
2022-10-28T04:26:12.331Z,13.10
2022-10-28T04:28:39.106Z,13.00
2022-10-28T04:31:05.873Z,13.00
2022-10-28T04:33:32.767Z,13.00
2022-10-28T04:35:59.492Z,12.90
2022-10-28T04:38:26.372Z,12.90
2022-10-28T04:40:53.113Z,12.80
2022-10-28T04:43:20.379Z,12.80
2022-10-28T04:45:47.400Z,12.80
2022-10-28T04:48:14.186Z,12.80
2022-10-28T04:50:41.743Z,12.80
2022-10-28T04:53:08.515Z,12.80
2022-10-28T04:55:35.282Z,12.80
2022-10-28T04:58:02.215Z,12.80
2022-10-28T05:00:30.167Z,12.90
2022-10-28T05:02:57.306Z,14.00
2022-10-28T05:05:24.535Z,13.80
2022-10-28T05:07:51.543Z,13.50
2022-10-28T05:10:19.022Z,13.50
2022-10-28T05:12:46.379Z,13.40
2022-10-28T05:15:15.065Z,13.40
2022-10-28T05:17:46.217Z,13.40
2022-10-28T05:20:15.162Z,13.40
2022-10-28T05:22:53.793Z,13.40
2022-10-28T05:25:21.822Z,13.50
2022-10-28T05:27:49.098Z,13.40
2022-10-28T05:30:16.368Z,13.50
2022-10-28T05:32:43.936Z,13.50
2022-10-28T05:35:11.184Z,13.50
2022-10-28T05:37:38.123Z,13.40
2022-10-28T05:40:06.672Z,13.30
2022-10-28T05:42:33.874Z,13.30
2022-10-28T05:45:03.548Z,13.30
2022-10-28T05:47:30.608Z,13.30
2022-10-28T05:49:57.371Z,13.20
2022-10-28T05:52:24.521Z,13.10
2022-10-28T05:54:51.734Z,13.00
2022-10-28T05:57:18.494Z,13.10
2022-10-28T05:59:45.230Z,13.20
2022-10-28T06:02:15.680Z,13.30
2022-10-28T06:04:42.930Z,13.30
2022-10-28T06:07:09.831Z,13.40
2022-10-28T06:09:36.698Z,13.50
2022-10-28T06:12:02.074Z,13.50
2022-10-28T06:14:29.301Z,13.60
2022-10-28T06:16:56.092Z,13.70
2022-10-28T06:19:22.815Z,13.80
2022-10-28T06:21:49.610Z,13.90
2022-10-28T06:24:16.330Z,14.00
2022-10-28T06:26:43.141Z,14.00
2022-10-28T06:29:10.602Z,14.30
2022-10-28T06:31:41.960Z,14.40
2022-10-28T06:34:10.737Z,14.40
2022-10-28T06:36:38.110Z,14.50
2022-10-28T06:39:05.683Z,14.60
2022-10-28T06:41:33.551Z,14.70
2022-10-28T06:44:00.638Z,14.70
2022-10-28T06:46:27.706Z,14.70
2022-10-28T06:48:56.907Z,14.80
2022-10-28T06:51:24.404Z,14.80
2022-10-28T06:53:52.130Z,14.80
2022-10-28T06:56:19.046Z,14.90
2022-10-28T06:58:53.685Z,15.00
2022-10-28T07:01:22.083Z,15.00
2022-10-28T07:03:49.013Z,15.10
2022-10-28T07:06:16.886Z,15.10
2022-10-28T07:08:43.646Z,15.20
2022-10-28T07:11:10.414Z,15.30
2022-10-28T07:13:37.184Z,15.30
2022-10-28T07:16:05.234Z,15.30
2022-10-28T07:18:32.004Z,15.40
2022-10-28T07:21:01.341Z,15.50
2022-10-28T07:23:28.805Z,15.40
2022-10-28T07:25:56.653Z,15.30
2022-10-28T07:28:24.895Z,15.40
2022-10-28T07:30:52.254Z,15.50
2022-10-28T07:33:19.391Z,15.60
2022-10-28T07:35:46.201Z,15.60
2022-10-28T07:38:12.996Z,15.70
2022-10-28T07:40:40.264Z,15.70
2022-10-28T07:43:07.069Z,15.70
2022-10-28T07:45:35.236Z,15.70
2022-10-28T07:48:02.669Z,15.70
2022-10-28T07:50:29.853Z,15.70
2022-10-28T07:52:57.320Z,15.70
2022-10-28T07:55:24.146Z,15.60
2022-10-28T07:57:51.073Z,15.60
2022-10-28T08:00:18.474Z,15.70
2022-10-28T08:02:45.262Z,15.80
2022-10-28T08:05:12.049Z,15.70
2022-10-28T08:07:39.135Z,15.90
2022-10-28T08:10:07.120Z,16.00
2022-10-28T08:12:34.046Z,16.00
2022-10-28T08:15:02.599Z,16.10
2022-10-28T08:17:30.085Z,16.30
2022-10-28T08:19:56.796Z,16.60
2022-10-28T08:22:24.670Z,16.80
2022-10-28T08:24:51.437Z,17.00
2022-10-28T08:27:18.144Z,17.10
2022-10-28T08:29:45.287Z,17.20
2022-10-28T08:32:12.051Z,17.30
2022-10-28T08:34:42.420Z,17.50
2022-10-28T08:37:10.584Z,17.70
2022-10-28T08:39:37.588Z,17.90
2022-10-28T08:42:18.443Z,18.00
2022-10-28T08:45:19.876Z,18.10
2022-10-28T08:48:11.011Z,18.10
2022-10-28T08:50:52.009Z,18.00
2022-10-28T08:53:21.716Z,18.00
2022-10-28T08:55:52.045Z,18.30
2022-10-28T08:58:30.876Z,18.40
2022-10-28T09:01:01.962Z,18.60
2022-10-28T09:03:38.995Z,18.80
2022-10-28T09:06:08.996Z,19.00
2022-10-28T09:08:39.329Z,19.30
2022-10-28T09:11:37.079Z,19.40
2022-10-28T09:14:21.864Z,19.70
2022-10-28T09:17:06.692Z,20.00
2022-10-28T09:19:52.913Z,20.30
2022-10-28T09:22:40.502Z,20.70
2022-10-28T09:25:41.291Z,21.00
2022-10-28T09:28:32.927Z,21.40
2022-10-28T09:31:12.173Z,21.60
2022-10-28T09:33:51.395Z,22.00
2022-10-28T09:36:24.550Z,22.30
2022-10-28T09:38:56.133Z,22.80
2022-10-28T09:41:27.241Z,23.30
2022-10-28T09:43:57.152Z,23.60
2022-10-28T09:46:28.355Z,23.70
2022-10-28T09:49:34.176Z,24.00
2022-10-28T09:52:19.086Z,24.30
2022-10-28T09:54:50.652Z,24.90
2022-10-28T09:57:18.076Z,25.30
2022-10-28T09:59:46.020Z,25.70
2022-10-28T10:02:33.512Z,26.20
2022-10-28T10:05:02.269Z,26.70
2022-10-28T10:07:43.219Z,27.00
2022-10-28T10:10:56.291Z,27.60
2022-10-28T10:13:28.799Z,28.20
2022-10-28T10:16:02.000Z,28.80
2022-10-28T10:18:32.987Z,29.00
2022-10-28T10:21:00.426Z,29.80
2022-10-28T10:23:32.895Z,30.70
2022-10-28T10:26:12.241Z,31.60
2022-10-28T10:28:48.642Z,32.40
2022-10-28T10:31:29.684Z,33.00
2022-10-28T10:33:57.938Z,33.90
2022-10-28T10:36:31.523Z,34.60
2022-10-28T10:39:00.730Z,35.00
2022-10-28T10:41:40.130Z,35.40
2022-10-28T10:44:22.764Z,35.20
2022-10-28T10:47:13.409Z,35.20
2022-10-28T10:49:40.168Z,36.00
2022-10-28T10:52:16.169Z,36.60
2022-10-28T10:54:56.245Z,37.10
2022-10-28T10:57:24.498Z,37.20
2022-10-28T10:59:54.161Z,37.50
2022-10-28T11:02:29.079Z,37.80
2022-10-28T11:05:01.112Z,38.00
2022-10-28T11:07:29.418Z,38.30
2022-10-28T11:09:56.711Z,38.30
2022-10-28T11:12:36.822Z,38.50
2022-10-28T11:15:33.233Z,38.60
2022-10-28T11:18:01.589Z,38.90
2022-10-28T11:20:58.378Z,39.00
2022-10-28T11:23:30.466Z,38.90
2022-10-28T11:26:05.981Z,38.60
2022-10-28T11:29:03.688Z,38.70
2022-10-28T11:31:44.741Z,38.80
2022-10-28T11:34:20.449Z,38.60
2022-10-28T11:37:09.646Z,39.10
2022-10-28T11:40:05.328Z,39.20
2022-10-28T11:43:11.179Z,39.60
2022-10-28T11:45:51.242Z,39.90
2022-10-28T11:48:25.894Z,39.80
2022-10-28T11:51:09.208Z,39.60
2022-10-28T11:53:51.361Z,39.70
2022-10-28T11:56:38.335Z,39.60
2022-10-28T11:59:38.351Z,39.80
2022-10-28T12:02:19.208Z,39.80
2022-10-28T12:05:04.050Z,39.80
2022-10-28T12:07:52.167Z,39.80
2022-10-28T12:10:44.229Z,39.60
2022-10-28T12:13:16.594Z,40.10
2022-10-28T12:16:08.331Z,39.80
2022-10-28T12:18:37.846Z,40.00
2022-10-28T12:21:23.457Z,40.40
2022-10-28T12:23:50.845Z,40.30
2022-10-28T12:26:19.934Z,40.00
2022-10-28T12:28:55.440Z,40.10
2022-10-28T12:31:34.497Z,40.00
2022-10-28T12:34:09.036Z,40.20
2022-10-28T12:36:55.428Z,40.40
2022-10-28T12:39:31.504Z,40.60
2022-10-28T12:42:09.667Z,40.40
2022-10-28T12:44:38.028Z,40.50
2022-10-28T12:47:13.725Z,40.40
2022-10-28T12:49:57.101Z,40.40
2022-10-28T12:53:01.258Z,40.20
2022-10-28T12:55:31.045Z,39.90
2022-10-28T12:58:15.625Z,39.90
2022-10-28T13:00:46.984Z,39.80
2022-10-28T13:03:15.534Z,39.40
2022-10-28T13:05:50.907Z,39.20
2022-10-28T13:08:41.823Z,39.00
2022-10-28T13:11:29.804Z,38.90
2022-10-28T13:14:05.805Z,39.00
2022-10-28T13:16:40.640Z,39.20
2022-10-28T13:19:31.365Z,39.20
2022-10-28T13:22:14.136Z,39.30
2022-10-28T13:24:50.213Z,39.30
2022-10-28T13:27:18.020Z,39.00
2022-10-28T13:29:51.538Z,39.20
2022-10-28T13:32:37.495Z,38.80
2022-10-28T13:35:13.701Z,39.00
2022-10-28T13:37:41.441Z,38.70
2022-10-28T13:40:23.573Z,38.60
2022-10-28T13:42:53.359Z,38.80
2022-10-28T13:45:49.664Z,38.60
2022-10-28T13:48:41.225Z,38.30
2022-10-28T13:51:10.825Z,38.10
2022-10-28T13:53:46.789Z,37.90
2022-10-28T13:56:45.921Z,37.40
2022-10-28T13:59:13.064Z,37.50
2022-10-28T14:02:40.678Z,37.50
2022-10-28T14:05:07.697Z,37.60
2022-10-28T14:07:38.237Z,37.10
2022-10-28T14:10:19.115Z,37.00
2022-10-28T14:12:52.524Z,36.60
2022-10-28T14:15:35.344Z,36.50
2022-10-28T14:18:41.431Z,36.20
2022-10-28T14:21:03.511Z,36.00
2022-10-28T14:23:30.963Z,35.70
2022-10-28T14:26:05.815Z,35.50
2022-10-28T14:28:32.560Z,35.10
2022-10-28T14:31:15.600Z,34.80
2022-10-28T14:33:42.692Z,34.60
2022-10-28T14:36:19.345Z,34.30
2022-10-28T14:39:04.520Z,34.20
2022-10-28T14:41:42.958Z,34.20
2022-10-28T14:44:21.713Z,33.60
2022-10-28T14:47:10.363Z,33.10
2022-10-28T14:49:38.926Z,32.90
2022-10-28T14:52:16.087Z,32.70
2022-10-28T14:54:52.265Z,32.40
2022-10-28T14:57:22.846Z,32.10
2022-10-28T14:59:51.182Z,31.50
2022-10-28T15:02:22.986Z,31.20
2022-10-28T15:05:04.170Z,30.80
2022-10-28T15:07:37.895Z,30.30
2022-10-28T15:10:28.091Z,29.70
2022-10-28T15:12:57.219Z,28.90
2022-10-28T15:15:25.932Z,28.40
2022-10-28T15:17:57.867Z,27.90
2022-10-28T15:20:28.376Z,27.40
2022-10-28T15:23:11.155Z,26.80
2022-10-28T15:25:38.394Z,26.20
2022-10-28T15:28:05.746Z,25.50
2022-10-28T15:30:34.770Z,24.70
2022-10-28T15:33:29.509Z,23.90
2022-10-28T15:36:25.900Z,23.10
2022-10-28T15:39:07.276Z,22.20
2022-10-28T15:41:40.351Z,21.50
2022-10-28T15:44:22.705Z,21.00
2022-10-28T15:46:50.728Z,20.40
2022-10-28T15:49:38.853Z,19.90
2022-10-28T15:52:17.813Z,19.50
2022-10-28T15:55:35.860Z,19.20
2022-10-28T15:58:19.400Z,19.00
2022-10-28T16:00:57.791Z,18.70
2022-10-28T16:03:40.821Z,18.50
2022-10-28T16:06:26.617Z,18.30
2022-10-28T16:09:05.753Z,18.10
2022-10-28T16:11:36.478Z,18.00
2022-10-28T16:14:28.266Z,17.90
2022-10-28T16:16:56.878Z,17.70
2022-10-28T16:19:29.645Z,17.60
2022-10-28T16:21:56.543Z,17.50
2022-10-28T16:24:23.265Z,17.40
2022-10-28T16:26:50.013Z,17.30
2022-10-28T16:29:16.760Z,17.20
2022-10-28T16:31:47.462Z,17.30
2022-10-28T16:34:15.458Z,17.20
2022-10-28T16:36:42.942Z,17.10
2022-10-28T16:39:13.302Z,17.00
2022-10-28T16:41:40.995Z,16.90
2022-10-28T16:44:27.550Z,16.80
2022-10-28T16:46:54.452Z,16.70
2022-10-28T16:49:21.207Z,16.60
2022-10-28T16:51:53.860Z,16.50
2022-10-28T16:54:20.791Z,16.40
2022-10-28T16:56:48.024Z,16.50
2022-10-28T16:59:15.578Z,16.50
2022-10-28T17:01:42.352Z,16.40
2022-10-28T17:04:09.393Z,16.30
2022-10-28T17:06:36.560Z,16.20
2022-10-28T17:09:04.089Z,16.30
2022-10-28T17:14:03.238Z,16.40
2022-10-28T17:16:29.954Z,16.30
2022-10-28T17:18:56.641Z,16.10
2022-10-28T17:21:23.428Z,16.00
2022-10-28T17:23:50.613Z,15.90
2022-10-28T17:26:17.901Z,16.00
2022-10-28T17:28:45.002Z,15.90
2022-10-28T17:31:11.833Z,15.90
2022-10-28T17:33:38.559Z,15.90
2022-10-28T17:36:07.916Z,15.90
2022-10-28T17:38:35.453Z,15.80
2022-10-28T17:41:02.646Z,15.80
2022-10-28T17:43:29.412Z,15.90
2022-10-28T17:46:08.176Z,15.90
2022-10-28T17:48:35.057Z,16.00
2022-10-28T17:51:02.405Z,16.10
2022-10-28T17:53:29.167Z,16.10
2022-10-28T17:56:00.591Z,16.10
2022-10-28T17:58:27.628Z,16.00
2022-10-28T18:00:58.822Z,16.00
2022-10-28T18:03:26.667Z,16.00
2022-10-28T18:05:53.886Z,15.90
2022-10-28T18:08:21.010Z,16.00
2022-10-28T18:10:56.423Z,16.10
2022-10-28T18:13:32.051Z,16.10
2022-10-28T18:16:12.897Z,16.00
2022-10-28T18:18:42.640Z,15.80
2022-10-28T18:21:13.724Z,15.80
2022-10-28T18:23:41.407Z,15.80
2022-10-28T18:26:12.016Z,15.90
2022-10-28T18:28:39.987Z,16.00
2022-10-28T18:31:10.216Z,16.00
2022-10-28T18:33:37.165Z,16.00
2022-10-28T18:36:13.498Z,15.90
2022-10-28T18:38:40.422Z,15.80
2022-10-28T18:41:18.769Z,15.60
2022-10-28T18:43:46.090Z,15.60
2022-10-28T18:46:14.732Z,15.60
2022-10-28T18:48:41.506Z,15.70
2022-10-28T18:51:11.323Z,15.70
2022-10-28T18:53:54.811Z,15.70
2022-10-28T18:56:24.041Z,15.70
2022-10-28T18:58:52.401Z,15.70
2022-10-28T19:01:27.621Z,15.60
2022-10-28T19:03:57.438Z,15.60
2022-10-28T19:06:26.011Z,15.60
2022-10-28T19:08:54.865Z,15.60
2022-10-28T19:11:23.174Z,15.60
2022-10-28T19:13:49.962Z,15.60
2022-10-28T19:16:17.631Z,15.70
2022-10-28T19:18:44.500Z,15.70
2022-10-28T19:21:29.410Z,15.70
2022-10-28T19:24:29.104Z,15.60
2022-10-28T19:26:56.399Z,15.70
2022-10-28T19:32:03.882Z,15.50
2022-10-28T19:34:32.519Z,15.60
2022-10-28T19:36:59.357Z,15.60
2022-10-28T19:39:26.105Z,15.50
2022-10-28T19:41:52.838Z,15.40
2022-10-28T19:44:19.937Z,15.40
2022-10-28T19:46:47.076Z,15.40
2022-10-28T19:49:15.513Z,15.50
2022-10-28T19:51:42.360Z,15.50
2022-10-28T19:54:13.477Z,15.50
2022-10-28T19:56:44.332Z,15.50
2022-10-28T19:59:13.857Z,15.40
2022-10-28T20:01:41.361Z,15.40
2022-10-28T20:04:10.147Z,15.20
2022-10-28T20:06:39.312Z,15.10
2022-10-28T20:09:07.087Z,14.90
2022-10-28T20:11:37.606Z,14.80
2022-10-28T20:14:20.690Z,14.90
2022-10-28T20:16:48.852Z,15.00
2022-10-28T20:19:21.716Z,15.00
2022-10-28T20:21:50.018Z,15.00
2022-10-28T20:24:17.377Z,15.20
2022-10-28T20:26:44.093Z,15.30
2022-10-28T20:29:10.856Z,15.30
2022-10-28T20:31:39.036Z,15.30
2022-10-28T20:34:06.445Z,15.40
2022-10-28T20:36:33.116Z,15.40
2022-10-28T20:39:00.972Z,15.40
2022-10-28T20:41:33.005Z,15.30
2022-10-28T20:44:00.465Z,15.20
2022-10-28T20:46:27.207Z,15.20
2022-10-28T20:48:54.423Z,15.10
2022-10-28T20:51:22.734Z,15.20
2022-10-28T20:53:50.424Z,15.20
2022-10-28T20:56:20.014Z,15.30
2022-10-28T20:58:47.545Z,15.30
2022-10-28T21:01:17.738Z,15.20
2022-10-28T21:03:48.127Z,15.10
2022-10-28T21:06:17.404Z,15.10
2022-10-28T21:08:44.629Z,15.10
2022-10-28T21:11:13.719Z,15.00
2022-10-28T21:13:41.468Z,15.00
2022-10-28T21:16:11.525Z,14.90
2022-10-28T21:18:39.511Z,14.90
2022-10-28T21:21:07.038Z,15.00
2022-10-28T21:23:34.227Z,15.00
2022-10-28T21:26:03.210Z,15.10
2022-10-28T21:28:31.055Z,15.00
2022-10-28T21:31:10.110Z,15.10
2022-10-28T21:33:38.173Z,15.20
2022-10-28T21:36:10.715Z,15.10
2022-10-28T21:38:43.732Z,15.00
2022-10-28T21:41:12.330Z,14.80
2022-10-28T21:43:41.861Z,14.80
2022-10-28T21:46:09.256Z,14.90
2022-10-28T21:48:37.345Z,14.90
2022-10-28T21:51:09.951Z,15.00
2022-10-28T21:53:42.604Z,15.10
2022-10-28T21:56:17.115Z,15.10
2022-10-28T21:58:45.803Z,15.20
2022-10-28T22:01:18.587Z,15.20
2022-10-28T22:03:45.542Z,15.20
2022-10-28T22:06:12.705Z,15.20
2022-10-28T22:08:45.142Z,15.20
2022-10-28T22:11:17.759Z,15.10
2022-10-28T22:13:45.317Z,15.00
2022-10-28T22:16:14.454Z,15.10
2022-10-28T22:18:45.040Z,15.20
2022-10-28T22:21:18.357Z,15.20
2022-10-28T22:23:45.543Z,15.00
2022-10-28T22:26:15.925Z,14.90
2022-10-28T22:28:43.080Z,14.80
2022-10-28T22:31:13.106Z,14.70
2022-10-28T22:33:40.958Z,14.60
2022-10-28T22:36:10.922Z,14.60
2022-10-28T22:38:38.145Z,14.40
2022-10-28T22:41:07.672Z,14.30
2022-10-28T22:43:34.856Z,14.30
2022-10-28T22:46:02.559Z,14.40
2022-10-28T22:48:32.924Z,14.50
2022-10-28T22:51:00.383Z,14.50
2022-10-28T22:53:28.026Z,14.50
2022-10-28T22:55:55.575Z,14.50
2022-10-28T22:58:23.544Z,14.50
2022-10-28T23:00:51.187Z,14.60
2022-10-28T23:03:18.362Z,14.70
2022-10-28T23:05:45.139Z,14.60
2022-10-28T23:08:15.589Z,14.50
2022-10-28T23:10:42.508Z,14.40
2022-10-28T23:13:13.547Z,14.20
2022-10-28T23:15:40.377Z,14.00
2022-10-28T23:18:07.541Z,13.90
2022-10-28T23:20:35.386Z,13.90
2022-10-28T23:23:02.136Z,13.80
2022-10-28T23:25:29.021Z,13.80
2022-10-28T23:27:56.170Z,13.80
2022-10-28T23:30:23.128Z,13.80
2022-10-28T23:32:50.271Z,13.80
2022-10-28T23:35:17.530Z,13.90
2022-10-28T23:37:44.302Z,13.90
2022-10-28T23:40:11.497Z,13.80
2022-10-28T23:42:38.663Z,13.90
2022-10-28T23:45:06.676Z,13.90
2022-10-28T23:47:33.429Z,14.00
2022-10-28T23:50:00.157Z,14.00
2022-10-28T23:52:26.885Z,14.00
2022-10-28T23:54:53.584Z,13.90
2022-10-28T23:57:20.335Z,13.80
2022-10-28T23:59:47.485Z,13.80
